createdAt,value
2022-11-29T00:00:22.692Z,30.23
2022-11-29T00:00:54.192Z,27.90
2022-11-29T00:01:27.209Z,30.52
2022-11-29T00:01:58.740Z,28.65
2022-11-29T00:02:30.294Z,28.20
2022-11-29T00:03:02.139Z,28.73
2022-11-29T00:03:34.201Z,30.58
2022-11-29T00:04:05.761Z,29.65
2022-11-29T00:04:37.432Z,27.80
2022-11-29T00:05:09.169Z,29.95
2022-11-29T00:05:40.651Z,26.58
2022-11-29T00:06:17.685Z,28.70
2022-11-29T00:06:49.130Z,27.92
2022-11-29T00:07:20.704Z,28.52
2022-11-29T00:07:52.294Z,30.23
2022-11-29T00:08:24.084Z,27.60
2022-11-29T00:08:57.386Z,28.42
2022-11-29T00:09:28.816Z,29.67
2022-11-29T00:10:00.392Z,30.30
2022-11-29T00:10:31.837Z,27.92
2022-11-29T00:11:12.240Z,28.08
2022-11-29T00:12:02.353Z,28.90
2022-11-29T00:12:33.812Z,27.58
2022-11-29T00:13:05.512Z,31.58
2022-11-29T00:13:37.117Z,26.58
2022-11-29T00:14:11.866Z,26.88
2022-11-29T00:14:43.602Z,27.40
2022-11-29T00:15:15.966Z,26.30
2022-11-29T00:15:47.432Z,29.98
2022-11-29T00:16:18.923Z,29.95
2022-11-29T00:16:52.983Z,29.00
2022-11-29T00:17:24.501Z,27.33
2022-11-29T00:17:55.970Z,28.08
2022-11-29T00:18:27.437Z,29.25
2022-11-29T00:18:58.897Z,28.77
2022-11-29T00:19:32.142Z,28.83
2022-11-29T00:20:04.032Z,28.27
2022-11-29T00:20:35.881Z,29.77
2022-11-29T00:21:08.412Z,28.00
2022-11-29T00:21:39.878Z,30.63
2022-11-29T00:22:11.328Z,30.27
2022-11-29T00:22:42.823Z,28.52
2022-11-29T00:23:14.479Z,29.05
2022-11-29T00:23:46.055Z,29.13
2022-11-29T00:24:17.621Z,29.10
2022-11-29T00:24:49.068Z,29.60
2022-11-29T00:25:20.629Z,29.15
2022-11-29T00:25:52.539Z,29.77
2022-11-29T00:26:24.116Z,29.98
2022-11-29T00:26:55.572Z,30.60
2022-11-29T00:27:27.007Z,30.33
2022-11-29T00:27:58.595Z,30.05
2022-11-29T00:28:30.094Z,29.13
2022-11-29T00:29:01.540Z,28.40
2022-11-29T00:29:33.026Z,30.80
2022-11-29T00:30:05.349Z,29.52
2022-11-29T00:30:36.859Z,28.95
2022-11-29T00:31:17.927Z,27.90
2022-11-29T00:31:49.437Z,29.30
2022-11-29T00:32:20.880Z,29.23
2022-11-29T00:32:52.526Z,28.27
2022-11-29T00:33:24.001Z,26.13
2022-11-29T00:33:56.855Z,29.52
2022-11-29T00:34:28.551Z,28.63
2022-11-29T00:35:02.022Z,31.35
2022-11-29T00:35:35.637Z,28.95
2022-11-29T00:36:07.529Z,29.65
2022-11-29T00:36:39.950Z,29.00
2022-11-29T00:37:11.552Z,27.88
2022-11-29T00:37:42.988Z,30.17
2022-11-29T00:38:14.444Z,28.85
2022-11-29T00:38:46.281Z,30.50
2022-11-29T00:39:17.838Z,29.00
2022-11-29T00:39:49.274Z,28.27
2022-11-29T00:40:20.704Z,29.08
2022-11-29T00:40:52.633Z,27.73
2022-11-29T00:41:24.360Z,29.05
2022-11-29T00:41:55.942Z,26.95
2022-11-29T00:42:27.420Z,26.60
2022-11-29T00:42:58.869Z,27.50
2022-11-29T00:43:30.320Z,28.75
2022-11-29T00:44:01.803Z,28.42
2022-11-29T00:44:33.410Z,28.35
2022-11-29T00:45:05.382Z,27.67
2022-11-29T00:45:37.095Z,27.13
2022-11-29T00:46:09.398Z,26.88
2022-11-29T00:46:40.934Z,29.02
2022-11-29T00:47:12.471Z,27.98
2022-11-29T00:47:43.972Z,29.63
2022-11-29T00:48:15.433Z,29.60
2022-11-29T00:48:47.092Z,26.35
2022-11-29T00:49:18.557Z,29.17
2022-11-29T00:49:50.061Z,28.60
2022-11-29T00:50:21.537Z,29.17
2022-11-29T00:50:53.273Z,28.23
2022-11-29T00:51:24.756Z,29.02
2022-11-29T00:51:56.214Z,26.83
2022-11-29T00:52:27.834Z,28.88
2022-11-29T00:52:59.283Z,28.80
2022-11-29T00:53:30.822Z,28.08
2022-11-29T00:54:02.418Z,24.67
2022-11-29T00:54:33.919Z,27.05
2022-11-29T00:55:05.929Z,29.58
2022-11-29T00:55:37.433Z,26.88
2022-11-29T00:56:09.308Z,25.65
2022-11-29T00:56:40.852Z,25.02
2022-11-29T00:57:12.297Z,25.63
2022-11-29T00:57:43.809Z,25.45
2022-11-29T00:58:15.305Z,26.60
2022-11-29T00:58:48.516Z,24.42
2022-11-29T00:59:20.069Z,25.98
2022-11-29T00:59:51.529Z,23.42
2022-11-29T01:00:23.175Z,24.23
2022-11-29T01:00:54.871Z,27.45
2022-11-29T01:01:26.627Z,25.30
2022-11-29T01:01:58.160Z,25.95
2022-11-29T01:02:29.843Z,24.17
2022-11-29T01:03:01.993Z,24.55
2022-11-29T01:03:33.604Z,25.75
2022-11-29T01:04:05.295Z,24.40
2022-11-29T01:04:36.754Z,26.20
2022-11-29T01:05:08.470Z,24.88
2022-11-29T01:05:40.335Z,22.90
2022-11-29T01:06:14.125Z,24.02
2022-11-29T01:06:45.778Z,24.27
2022-11-29T01:07:17.407Z,23.85
2022-11-29T01:07:49.062Z,24.98
2022-11-29T01:08:20.656Z,23.90
2022-11-29T01:08:52.145Z,24.58
2022-11-29T01:09:23.769Z,22.88
2022-11-29T01:09:55.192Z,22.67
2022-11-29T01:10:27.080Z,25.42
2022-11-29T01:11:11.330Z,23.63
2022-11-29T01:11:42.936Z,21.85
2022-11-29T01:12:14.463Z,22.98
2022-11-29T01:12:45.942Z,24.42
2022-11-29T01:13:17.619Z,21.60
2022-11-29T01:13:51.006Z,22.25
2022-11-29T01:14:22.722Z,24.50
2022-11-29T01:14:54.264Z,21.25
2022-11-29T01:15:25.874Z,20.50
2022-11-29T01:15:58.201Z,21.15
2022-11-29T01:16:31.068Z,20.77
2022-11-29T01:17:02.759Z,23.33
2022-11-29T01:17:39.121Z,23.85
2022-11-29T01:18:10.608Z,20.25
2022-11-29T01:18:42.904Z,23.15
2022-11-29T01:19:14.361Z,19.92
2022-11-29T01:19:50.652Z,22.42
2022-11-29T01:20:22.586Z,22.45
2022-11-29T01:20:58.325Z,23.95
2022-11-29T01:21:29.972Z,23.42
2022-11-29T01:22:01.435Z,22.15
2022-11-29T01:22:34.439Z,24.83
2022-11-29T01:23:05.944Z,23.85
2022-11-29T01:23:38.090Z,22.85
2022-11-29T01:24:09.625Z,23.70
2022-11-29T01:24:41.477Z,22.50
2022-11-29T01:25:13.609Z,20.63
2022-11-29T01:25:45.065Z,22.63
2022-11-29T01:26:19.215Z,21.98
2022-11-29T01:26:50.657Z,20.13
2022-11-29T01:27:22.233Z,20.67
2022-11-29T01:27:54.388Z,23.00
2022-11-29T01:28:26.492Z,20.52
2022-11-29T01:28:58.662Z,20.08
2022-11-29T01:29:30.144Z,21.70
2022-11-29T01:30:02.471Z,20.45
2022-11-29T01:30:34.179Z,22.17
2022-11-29T01:31:10.816Z,21.30
2022-11-29T01:31:42.332Z,22.27
2022-11-29T01:32:13.936Z,22.10
2022-11-29T01:32:45.399Z,24.08
2022-11-29T01:33:16.905Z,22.80
2022-11-29T01:33:48.526Z,22.65
2022-11-29T01:34:19.977Z,22.00
2022-11-29T01:34:51.446Z,23.63
2022-11-29T01:35:22.976Z,20.85
2022-11-29T01:35:54.960Z,23.52
2022-11-29T01:36:27.014Z,21.40
2022-11-29T01:36:58.494Z,23.02
2022-11-29T01:37:30.051Z,25.83
2022-11-29T01:38:01.549Z,24.15
2022-11-29T01:38:33.165Z,24.83
2022-11-29T01:39:05.649Z,22.88
2022-11-29T01:39:37.349Z,24.63
2022-11-29T01:40:09.195Z,22.70
2022-11-29T01:40:40.693Z,23.23
2022-11-29T01:41:15.789Z,24.80
2022-11-29T01:41:47.296Z,23.33
2022-11-29T01:42:18.928Z,23.55
2022-11-29T01:42:50.405Z,22.05
2022-11-29T01:43:22.465Z,22.58
2022-11-29T01:43:55.160Z,22.02
2022-11-29T01:44:26.759Z,23.15
2022-11-29T01:45:23.004Z,23.13
2022-11-29T01:45:55.085Z,20.92
2022-11-29T01:46:29.245Z,19.90
2022-11-29T01:47:00.860Z,23.17
2022-11-29T01:47:32.401Z,24.27
2022-11-29T01:48:04.346Z,22.65
2022-11-29T01:48:35.809Z,23.75
2022-11-29T01:49:16.254Z,25.15
2022-11-29T01:49:48.694Z,21.00
2022-11-29T01:50:20.518Z,20.95
2022-11-29T01:50:54.524Z,22.15
2022-11-29T01:51:27.165Z,22.30
2022-11-29T01:52:00.363Z,22.50
2022-11-29T01:52:32.918Z,21.70
2022-11-29T01:53:04.869Z,22.02
2022-11-29T01:53:36.324Z,21.40
2022-11-29T01:54:09.167Z,19.85
2022-11-29T01:54:46.873Z,20.35
2022-11-29T01:55:19.016Z,22.23
2022-11-29T01:55:54.126Z,21.05
2022-11-29T01:56:25.974Z,20.90
2022-11-29T01:56:58.821Z,20.00
2022-11-29T01:57:31.078Z,20.58
2022-11-29T01:58:04.084Z,24.48
2022-11-29T01:58:35.913Z,20.50
2022-11-29T01:59:10.167Z,22.50
2022-11-29T01:59:46.278Z,22.90
2022-11-29T02:00:19.873Z,21.50
2022-11-29T02:00:51.336Z,21.63
2022-11-29T02:01:23.301Z,20.45
2022-11-29T02:02:06.085Z,20.27
2022-11-29T02:02:52.458Z,23.52
2022-11-29T02:03:24.021Z,20.73
2022-11-29T02:03:55.713Z,23.50
2022-11-29T02:04:27.233Z,24.15
2022-11-29T02:04:59.809Z,25.08
2022-11-29T02:05:32.718Z,23.55
2022-11-29T02:06:05.178Z,23.40
2022-11-29T02:06:37.203Z,25.13
2022-11-29T02:07:09.159Z,24.40
2022-11-29T02:07:43.081Z,23.05
2022-11-29T02:08:16.926Z,24.02
2022-11-29T02:08:48.389Z,23.20
2022-11-29T02:09:21.797Z,25.15
2022-11-29T02:09:53.246Z,23.13
2022-11-29T02:10:49.647Z,22.42
2022-11-29T02:11:46.341Z,22.92
2022-11-29T02:12:26.755Z,19.52
2022-11-29T02:13:04.965Z,19.38
2022-11-29T02:14:10.504Z,19.15
2022-11-29T02:15:06.350Z,18.90
2022-11-29T02:15:46.701Z,17.85
2022-11-29T02:16:33.217Z,20.08
2022-11-29T02:17:13.895Z,19.42
2022-11-29T02:18:14.797Z,20.02
2022-11-29T02:18:55.828Z,19.98
2022-11-29T02:20:42.718Z,17.08
2022-11-29T02:21:41.970Z,19.55
2022-11-29T02:22:19.480Z,19.65
2022-11-29T02:22:57.618Z,20.27
2022-11-29T02:23:39.445Z,23.02
2022-11-29T02:24:29.476Z,20.27
2022-11-29T02:25:24.623Z,19.83
2022-11-29T02:26:23.925Z,22.98
2022-11-29T02:27:04.509Z,23.83
2022-11-29T02:27:51.150Z,21.30
2022-11-29T02:28:52.043Z,19.58
2022-11-29T02:29:53.853Z,18.85
2022-11-29T02:31:58.927Z,17.67
2022-11-29T02:33:02.269Z,19.33
2022-11-29T02:33:47.109Z,19.90
2022-11-29T02:34:33.626Z,20.48
2022-11-29T02:35:05.113Z,20.90
2022-11-29T02:35:48.822Z,20.55
2022-11-29T02:36:32.562Z,22.50
2022-11-29T02:37:22.641Z,21.88
2022-11-29T02:38:23.290Z,20.08
2022-11-29T02:39:09.949Z,19.73
2022-11-29T02:40:04.880Z,19.58
2022-11-29T02:40:51.370Z,19.15
2022-11-29T02:41:59.744Z,18.80
2022-11-29T02:42:56.515Z,17.25
2022-11-29T02:43:57.981Z,18.65
2022-11-29T02:44:55.998Z,17.80
2022-11-29T02:45:36.196Z,17.13
2022-11-29T02:46:07.642Z,20.35
2022-11-29T02:46:49.176Z,18.35
2022-11-29T02:47:36.965Z,21.02
2022-11-29T02:48:27.591Z,17.27
2022-11-29T02:49:31.737Z,19.05
2022-11-29T02:50:21.453Z,16.20
2022-11-29T02:51:13.709Z,17.92
2022-11-29T02:51:55.123Z,15.38
2022-11-29T02:52:32.707Z,17.02
2022-11-29T02:53:11.657Z,19.38
2022-11-29T02:54:13.881Z,17.58
2022-11-29T02:54:50.386Z,19.33
2022-11-29T02:55:35.018Z,17.13
2022-11-29T02:56:34.428Z,18.98
2022-11-29T02:57:23.185Z,15.95
2022-11-29T02:58:19.471Z,15.88
2022-11-29T02:59:11.712Z,18.05
2022-11-29T02:59:54.858Z,15.48
2022-11-29T03:00:26.630Z,16.75
2022-11-29T03:01:05.404Z,16.00
2022-11-29T03:01:41.897Z,16.70
2022-11-29T03:02:39.966Z,16.42
2022-11-29T03:03:18.404Z,19.00
2022-11-29T03:03:56.456Z,24.38
2022-11-29T03:05:05.390Z,17.90
2022-11-29T03:06:02.084Z,15.25
2022-11-29T03:06:52.118Z,16.27
2022-11-29T03:07:52.965Z,16.20
2022-11-29T03:08:32.254Z,16.75
2022-11-29T03:09:22.031Z,17.17
2022-11-29T03:10:08.146Z,18.27
2022-11-29T03:11:17.239Z,16.45
2022-11-29T03:11:55.968Z,17.50
2022-11-29T03:12:38.438Z,17.83
2022-11-29T03:13:20.570Z,18.98
2022-11-29T03:14:14.685Z,19.17
2022-11-29T03:15:12.453Z,17.30
2022-11-29T03:15:59.167Z,19.27
2022-11-29T03:17:12.993Z,20.13
2022-11-29T03:18:10.612Z,18.25
2022-11-29T03:18:56.276Z,19.88
2022-11-29T03:19:55.190Z,19.85
2022-11-29T03:20:36.177Z,17.42
2022-11-29T03:22:03.575Z,15.55
2022-11-29T03:22:47.933Z,16.83
2022-11-29T03:23:32.229Z,18.40
2022-11-29T03:24:08.932Z,17.85
2022-11-29T03:24:54.951Z,16.58
2022-11-29T03:25:38.601Z,16.15
2022-11-29T03:26:24.890Z,16.35
2022-11-29T03:27:02.114Z,16.38
2022-11-29T03:28:01.468Z,16.73
2022-11-29T03:28:37.433Z,15.98
2022-11-29T03:29:29.755Z,15.68
2022-11-29T03:30:04.513Z,16.95
2022-11-29T03:30:38.376Z,17.00
2022-11-29T03:31:18.557Z,15.68
2022-11-29T03:32:07.497Z,16.23
2022-11-29T03:32:47.770Z,17.02
2022-11-29T03:33:35.969Z,17.17
2022-11-29T03:34:45.851Z,16.10
2022-11-29T03:35:35.976Z,17.27
2022-11-29T03:36:07.671Z,17.80
2022-11-29T03:36:45.557Z,17.13
2022-11-29T03:37:43.130Z,17.17
2022-11-29T03:38:43.112Z,17.85
2022-11-29T03:39:19.542Z,18.52
2022-11-29T03:39:53.480Z,18.58
2022-11-29T03:40:46.777Z,20.13
2022-11-29T03:41:25.768Z,17.95
2022-11-29T03:42:03.855Z,17.85
2022-11-29T03:42:43.249Z,18.33
2022-11-29T03:43:30.774Z,19.15
2022-11-29T03:44:11.518Z,19.10
2022-11-29T03:44:56.408Z,19.92
2022-11-29T03:45:33.837Z,20.63
2022-11-29T03:46:14.724Z,19.20
2022-11-29T03:47:09.093Z,20.70
2022-11-29T03:47:49.219Z,18.23
2022-11-29T03:49:01.731Z,21.77
2022-11-29T03:49:38.015Z,18.65
2022-11-29T03:50:20.694Z,18.80
2022-11-29T03:50:55.350Z,19.17
2022-11-29T03:51:51.773Z,20.27
2022-11-29T03:52:29.389Z,20.27
2022-11-29T03:53:14.853Z,19.35
2022-11-29T03:53:52.157Z,21.48
2022-11-29T03:54:32.650Z,19.40
2022-11-29T03:55:23.063Z,18.92
2022-11-29T03:56:00.504Z,20.52
2022-11-29T03:56:34.555Z,20.85
2022-11-29T03:57:06.972Z,21.08
2022-11-29T03:57:50.214Z,19.55
2022-11-29T03:58:32.589Z,18.50
2022-11-29T03:59:12.114Z,17.75
2022-11-29T03:59:59.961Z,19.05
2022-11-29T04:00:42.986Z,17.55
2022-11-29T04:01:50.113Z,18.42
2022-11-29T04:03:09.621Z,22.02
2022-11-29T04:04:00.471Z,18.63
2022-11-29T04:04:50.364Z,20.27
2022-11-29T04:05:21.860Z,18.05
2022-11-29T04:06:01.147Z,19.27
2022-11-29T04:07:00.060Z,19.45
2022-11-29T04:07:47.159Z,18.65
2022-11-29T04:08:43.085Z,19.73
2022-11-29T04:09:46.749Z,17.50
2022-11-29T04:10:27.192Z,20.02
2022-11-29T04:11:55.820Z,20.05
2022-11-29T04:13:02.463Z,21.92
2022-11-29T04:14:11.277Z,19.35
2022-11-29T04:15:04.238Z,17.67
2022-11-29T04:15:44.634Z,16.92
2022-11-29T04:16:32.901Z,19.52
2022-11-29T04:17:22.198Z,18.58
2022-11-29T04:18:20.458Z,18.70
2022-11-29T04:19:15.740Z,18.42
2022-11-29T04:20:24.789Z,18.50
2022-11-29T04:21:14.818Z,16.02
2022-11-29T04:22:15.480Z,16.02
2022-11-29T04:23:18.645Z,16.83
2022-11-29T04:24:25.652Z,18.77
2022-11-29T04:25:21.882Z,14.73
2022-11-29T04:26:24.061Z,18.33
2022-11-29T04:27:13.739Z,17.38
2022-11-29T04:27:49.522Z,20.20
2022-11-29T04:28:45.090Z,20.80
2022-11-29T04:29:26.858Z,18.13
2022-11-29T04:30:07.743Z,18.92
2022-11-29T04:31:06.909Z,17.30
2022-11-29T04:32:03.448Z,18.52
2022-11-29T04:33:17.150Z,16.83
2022-11-29T04:34:03.767Z,19.15
2022-11-29T04:34:58.855Z,15.50
2022-11-29T04:36:05.713Z,15.30
2022-11-29T04:36:54.099Z,18.33
2022-11-29T04:37:31.642Z,16.48
2022-11-29T04:38:05.748Z,17.35
2022-11-29T04:38:42.838Z,18.67
2022-11-29T04:39:36.481Z,21.20
2022-11-29T04:40:32.564Z,19.98
2022-11-29T04:41:20.356Z,16.40
2022-11-29T04:42:25.861Z,16.30
2022-11-29T04:43:34.549Z,18.30
2022-11-29T04:44:09.383Z,16.95
2022-11-29T04:44:58.914Z,18.80
2022-11-29T04:45:48.753Z,16.88
2022-11-29T04:46:46.679Z,18.17
2022-11-29T04:47:38.497Z,15.98
2022-11-29T04:48:28.050Z,16.75
2022-11-29T04:49:11.215Z,16.65
2022-11-29T04:50:18.334Z,19.65
2022-11-29T04:51:33.977Z,16.92
2022-11-29T04:52:24.821Z,16.05
2022-11-29T04:53:08.811Z,17.90
2022-11-29T04:53:49.172Z,20.67
2022-11-29T04:54:48.699Z,18.33
2022-11-29T04:55:43.128Z,15.20
2022-11-29T04:56:43.309Z,16.33
2022-11-29T04:57:42.130Z,16.88
2022-11-29T04:58:29.615Z,17.42
2022-11-29T04:59:19.464Z,20.20
2022-11-29T04:59:57.251Z,16.67
2022-11-29T05:00:31.585Z,20.98
2022-11-29T05:01:23.462Z,18.38
2022-11-29T05:02:13.341Z,17.70
2022-11-29T05:03:02.096Z,18.70
2022-11-29T05:03:41.853Z,20.63
2022-11-29T05:04:28.431Z,20.38
2022-11-29T05:05:13.997Z,18.02
2022-11-29T05:05:51.570Z,17.48
2022-11-29T05:06:29.803Z,17.83
2022-11-29T05:07:27.776Z,17.45
2022-11-29T05:08:20.877Z,17.70
2022-11-29T05:09:22.216Z,16.98
2022-11-29T05:09:56.617Z,17.63
2022-11-29T05:10:52.934Z,19.38
2022-11-29T05:11:43.050Z,18.15
2022-11-29T05:12:18.643Z,17.65
2022-11-29T05:13:03.233Z,19.65
2022-11-29T05:13:56.045Z,16.75
2022-11-29T05:14:49.820Z,15.32
2022-11-29T05:15:29.987Z,16.50
2022-11-29T05:16:21.793Z,18.23
2022-11-29T05:17:20.220Z,16.95
2022-11-29T05:18:10.302Z,16.58
2022-11-29T05:19:00.367Z,17.33
2022-11-29T05:20:05.895Z,15.02
2022-11-29T05:20:49.634Z,18.65
2022-11-29T05:21:36.465Z,16.30
2022-11-29T05:22:29.142Z,17.15
2022-11-29T05:23:12.276Z,18.00
2022-11-29T05:24:20.524Z,17.73
2022-11-29T05:25:14.087Z,17.65
2022-11-29T05:25:54.480Z,16.55
2022-11-29T05:26:27.448Z,16.65
2022-11-29T05:27:25.697Z,17.10
2022-11-29T05:28:10.252Z,17.05
2022-11-29T05:29:03.547Z,17.23
2022-11-29T05:29:43.398Z,17.40
2022-11-29T05:30:20.865Z,16.80
2022-11-29T05:31:23.078Z,16.27
2022-11-29T05:32:21.520Z,17.33
2022-11-29T05:33:14.047Z,14.02
2022-11-29T05:33:59.374Z,14.82
2022-11-29T05:34:43.680Z,14.25
2022-11-29T05:35:37.181Z,16.60
2022-11-29T05:36:29.578Z,18.48
2022-11-29T05:37:25.926Z,15.88
2022-11-29T05:37:57.527Z,16.40
2022-11-29T05:39:03.634Z,14.88
2022-11-29T05:39:42.134Z,21.17
2022-11-29T05:40:13.773Z,13.30
2022-11-29T05:41:19.342Z,14.48
2022-11-29T05:42:02.627Z,18.88
2022-11-29T05:42:45.875Z,17.85
2022-11-29T05:43:52.806Z,13.82
2022-11-29T05:44:43.456Z,12.63
2022-11-29T05:45:44.437Z,16.20
2022-11-29T05:46:30.208Z,13.95
2022-11-29T05:47:03.428Z,14.27
2022-11-29T05:47:51.850Z,16.13
2022-11-29T05:48:45.410Z,15.05
2022-11-29T05:49:18.886Z,14.88
2022-11-29T05:50:07.586Z,15.10
2022-11-29T05:50:55.129Z,15.00
2022-11-29T05:51:29.593Z,16.15
2022-11-29T05:52:22.571Z,16.52
2022-11-29T05:53:03.062Z,15.07
2022-11-29T05:53:43.197Z,16.13
2022-11-29T05:54:28.215Z,15.70
2022-11-29T05:55:16.849Z,17.13
2022-11-29T05:56:12.777Z,15.02
2022-11-29T05:57:01.147Z,16.85
2022-11-29T05:57:54.012Z,17.92
2022-11-29T05:58:43.793Z,19.13
2022-11-29T05:59:22.219Z,18.05
2022-11-29T05:59:53.997Z,16.27
2022-11-29T06:00:29.265Z,15.48
2022-11-29T06:01:16.691Z,17.60
2022-11-29T06:02:15.742Z,17.23
2022-11-29T06:03:10.392Z,18.52
2022-11-29T06:04:04.473Z,15.68
2022-11-29T06:04:57.687Z,16.95
2022-11-29T06:05:37.440Z,14.82
2022-11-29T06:06:16.750Z,22.17
2022-11-29T06:06:57.222Z,21.45
2022-11-29T06:07:31.531Z,19.95
2022-11-29T06:08:26.007Z,16.20
2022-11-29T06:09:05.903Z,18.40
2022-11-29T06:09:49.947Z,17.95
2022-11-29T06:10:25.024Z,16.85
2022-11-29T06:11:14.401Z,19.48
2022-11-29T06:11:49.282Z,19.63
2022-11-29T06:12:22.869Z,18.92
2022-11-29T06:13:10.893Z,18.73
2022-11-29T06:14:01.443Z,14.98
2022-11-29T06:14:41.821Z,19.73
2022-11-29T06:15:19.248Z,20.70
2022-11-29T06:16:17.803Z,17.27
2022-11-29T06:17:13.843Z,20.35
2022-11-29T06:18:27.401Z,20.65
2022-11-29T06:19:23.784Z,18.70
2022-11-29T06:20:13.058Z,15.05
2022-11-29T06:21:14.742Z,17.63
2022-11-29T06:21:57.971Z,17.45
2022-11-29T06:23:03.135Z,18.52
2022-11-29T06:23:49.522Z,21.85
2022-11-29T06:24:37.791Z,20.73
2022-11-29T06:25:37.642Z,17.75
2022-11-29T06:26:44.825Z,20.38
2022-11-29T06:27:24.923Z,15.57
2022-11-29T06:28:17.801Z,16.08
2022-11-29T06:29:07.813Z,15.05
2022-11-29T06:29:52.612Z,15.50
2022-11-29T06:30:27.756Z,15.52
2022-11-29T06:31:03.473Z,16.75
2022-11-29T06:31:44.032Z,18.25
2022-11-29T06:32:40.258Z,18.08
2022-11-29T06:33:29.607Z,18.15
2022-11-29T06:34:07.393Z,17.20
2022-11-29T06:34:48.598Z,18.27
2022-11-29T06:35:48.797Z,18.33
2022-11-29T06:36:31.942Z,16.17
2022-11-29T06:37:20.345Z,15.82
2022-11-29T06:37:53.888Z,15.48
2022-11-29T06:38:28.242Z,17.45
2022-11-29T06:38:59.865Z,16.77
2022-11-29T06:39:31.559Z,17.83
2022-11-29T06:40:04.408Z,16.30
2022-11-29T06:40:36.072Z,16.83
2022-11-29T06:41:14.725Z,17.30
2022-11-29T06:41:47.095Z,15.43
2022-11-29T06:42:18.644Z,17.33
2022-11-29T06:42:50.361Z,17.48
2022-11-29T06:43:22.052Z,17.40
2022-11-29T06:43:53.825Z,15.35
2022-11-29T06:44:25.618Z,15.68
2022-11-29T06:44:57.208Z,16.83
2022-11-29T06:45:28.956Z,15.85
2022-11-29T06:46:14.614Z,19.25
2022-11-29T06:46:53.528Z,16.25
2022-11-29T06:47:30.812Z,15.85
2022-11-29T06:48:04.576Z,16.85
2022-11-29T06:49:02.482Z,16.73
2022-11-29T06:49:40.029Z,17.33
2022-11-29T06:50:20.059Z,15.10
2022-11-29T06:51:06.026Z,17.48
2022-11-29T06:52:02.445Z,18.88
2022-11-29T06:53:25.237Z,15.02
2022-11-29T06:54:52.115Z,17.63
2022-11-29T06:55:57.684Z,15.10
2022-11-29T06:56:36.157Z,16.60
2022-11-29T06:57:24.826Z,15.43
2022-11-29T06:58:12.693Z,19.88
2022-11-29T06:58:52.024Z,15.68
2022-11-29T06:59:35.742Z,15.73
2022-11-29T07:00:20.690Z,14.55
2022-11-29T07:01:14.443Z,16.48
2022-11-29T07:02:04.323Z,15.82
2022-11-29T07:02:55.053Z,14.30
2022-11-29T07:03:32.981Z,19.90
2022-11-29T07:04:28.933Z,16.38
2022-11-29T07:05:15.685Z,15.77
2022-11-29T07:05:47.476Z,16.92
2022-11-29T07:06:30.111Z,18.85
2022-11-29T07:07:01.889Z,15.05
2022-11-29T07:07:35.132Z,16.63
2022-11-29T07:08:12.221Z,16.75
2022-11-29T07:08:43.893Z,17.40
2022-11-29T07:09:18.420Z,17.15
2022-11-29T07:09:51.706Z,17.58
2022-11-29T07:10:24.025Z,17.65
2022-11-29T07:10:56.113Z,18.33
2022-11-29T07:11:28.157Z,18.73
2022-11-29T07:12:00.168Z,18.92
2022-11-29T07:12:31.922Z,17.90
2022-11-29T07:13:03.724Z,19.90
2022-11-29T07:13:35.566Z,18.95
2022-11-29T07:14:07.434Z,17.27
2022-11-29T07:14:39.208Z,18.60
2022-11-29T07:15:18.581Z,20.27
2022-11-29T07:16:33.913Z,19.20
2022-11-29T07:17:24.073Z,17.55
2022-11-29T07:18:02.353Z,19.48
2022-11-29T07:18:48.657Z,18.27
2022-11-29T07:19:43.880Z,17.95
2022-11-29T07:20:47.549Z,17.42
2022-11-29T07:21:39.760Z,16.70
2022-11-29T07:22:33.602Z,20.38
2022-11-29T07:23:19.544Z,19.38
2022-11-29T07:24:02.505Z,17.58
2022-11-29T07:24:49.133Z,18.08
2022-11-29T07:25:26.308Z,19.02
2022-11-29T07:26:16.547Z,18.20
2022-11-29T07:26:59.697Z,21.73
2022-11-29T07:27:37.034Z,23.67
2022-11-29T07:28:35.230Z,17.98
2022-11-29T07:29:24.688Z,17.25
2022-11-29T07:30:05.208Z,19.45
2022-11-29T07:31:05.950Z,17.10
2022-11-29T07:31:52.426Z,17.58
2022-11-29T07:32:47.306Z,18.60
2022-11-29T07:34:03.418Z,21.23
2022-11-29T07:34:59.405Z,16.15
2022-11-29T07:35:51.467Z,18.23
2022-11-29T07:36:45.671Z,17.85
2022-11-29T07:37:22.743Z,19.20
2022-11-29T07:38:11.929Z,18.15
2022-11-29T07:38:52.416Z,18.63
2022-11-29T07:39:41.988Z,23.60
2022-11-29T07:40:16.155Z,19.05
2022-11-29T07:40:53.821Z,17.00
2022-11-29T07:41:40.482Z,20.05
2022-11-29T07:42:34.275Z,16.95
2022-11-29T07:43:27.200Z,17.45
2022-11-29T07:44:34.953Z,18.08
2022-11-29T07:45:21.711Z,21.13
2022-11-29T07:45:54.610Z,19.15
2022-11-29T07:46:28.456Z,20.27
2022-11-29T07:46:59.977Z,18.38
2022-11-29T07:47:35.672Z,21.40
2022-11-29T07:48:10.929Z,21.40
2022-11-29T07:48:42.609Z,21.00
2022-11-29T07:49:14.085Z,18.65
2022-11-29T07:49:45.569Z,17.92
2022-11-29T07:50:17.296Z,21.05
2022-11-29T07:50:48.764Z,20.70
2022-11-29T07:51:20.271Z,20.83
2022-11-29T07:51:51.933Z,20.65
2022-11-29T07:52:23.395Z,21.52
2022-11-29T07:52:56.035Z,20.40
2022-11-29T07:53:28.916Z,18.83
2022-11-29T07:54:00.377Z,22.02
2022-11-29T07:54:31.845Z,23.00
2022-11-29T07:55:05.025Z,21.00
2022-11-29T07:55:37.330Z,23.85
2022-11-29T07:56:12.568Z,24.48
2022-11-29T07:56:44.205Z,22.85
2022-11-29T07:57:15.696Z,21.58
2022-11-29T07:57:48.077Z,23.05
2022-11-29T07:58:19.632Z,22.10
2022-11-29T07:58:51.151Z,23.75
2022-11-29T07:59:22.787Z,23.42
2022-11-29T07:59:54.253Z,24.00
2022-11-29T08:00:25.783Z,24.95
2022-11-29T08:00:57.620Z,22.00
2022-11-29T08:01:29.352Z,23.50
2022-11-29T08:02:00.906Z,24.55
2022-11-29T08:02:32.629Z,23.83
2022-11-29T08:03:04.747Z,23.10
2022-11-29T08:03:36.348Z,23.50
2022-11-29T08:04:08.513Z,21.95
2022-11-29T08:04:44.458Z,21.05
2022-11-29T08:05:16.589Z,23.40
2022-11-29T08:05:48.242Z,22.30
2022-11-29T08:06:26.495Z,21.23
2022-11-29T08:06:59.628Z,22.05
2022-11-29T08:07:31.261Z,22.38
2022-11-29T08:08:03.316Z,22.20
2022-11-29T08:08:37.867Z,21.95
2022-11-29T08:09:13.793Z,21.30
2022-11-29T08:09:45.593Z,24.58
2022-11-29T08:10:17.493Z,20.80
2022-11-29T08:10:48.984Z,21.88
2022-11-29T08:11:20.588Z,21.85
2022-11-29T08:11:52.656Z,20.60
2022-11-29T08:12:24.188Z,21.65
2022-11-29T08:12:55.654Z,20.88
2022-11-29T08:13:27.119Z,22.65
2022-11-29T08:14:00.210Z,20.75
2022-11-29T08:14:33.300Z,21.23
2022-11-29T08:15:05.402Z,22.55
2022-11-29T08:15:36.976Z,20.83
2022-11-29T08:16:08.644Z,21.90
2022-11-29T08:16:40.146Z,20.30
2022-11-29T08:17:11.650Z,20.98
2022-11-29T08:17:43.248Z,20.15
2022-11-29T08:18:15.876Z,20.95
2022-11-29T08:18:47.326Z,21.10
2022-11-29T08:19:18.924Z,20.98
2022-11-29T08:19:50.450Z,22.42
2022-11-29T08:20:21.901Z,20.98
2022-11-29T08:20:53.775Z,23.00
2022-11-29T08:21:25.250Z,21.52
2022-11-29T08:21:56.751Z,21.92
2022-11-29T08:22:28.232Z,18.80
2022-11-29T08:22:59.889Z,20.70
2022-11-29T08:23:31.368Z,21.70
2022-11-29T08:24:02.873Z,22.27
2022-11-29T08:24:34.324Z,19.98
2022-11-29T08:25:07.240Z,22.60
2022-11-29T08:25:39.127Z,23.73
2022-11-29T08:26:10.628Z,22.75
2022-11-29T08:26:42.096Z,21.05
2022-11-29T08:27:13.858Z,24.58
2022-11-29T08:27:45.304Z,21.10
2022-11-29T08:28:17.098Z,21.70
2022-11-29T08:28:52.792Z,20.58
2022-11-29T08:29:24.236Z,20.80
2022-11-29T08:29:55.681Z,20.08
2022-11-29T08:30:27.193Z,20.60
2022-11-29T08:31:07.921Z,20.23
2022-11-29T08:31:40.104Z,19.25
2022-11-29T08:32:14.596Z,21.60
2022-11-29T08:32:51.237Z,20.95
2022-11-29T08:33:23.125Z,19.50
2022-11-29T08:33:54.650Z,18.50
2022-11-29T08:34:26.337Z,20.30
2022-11-29T08:34:57.802Z,20.02
2022-11-29T08:35:29.673Z,20.83
2022-11-29T08:36:11.916Z,21.83
2022-11-29T08:36:46.305Z,20.95
2022-11-29T08:37:17.901Z,19.70
2022-11-29T08:37:49.995Z,17.98
2022-11-29T08:38:22.134Z,18.60
2022-11-29T08:39:02.231Z,18.30
2022-11-29T08:39:37.464Z,20.02
2022-11-29T08:40:09.646Z,20.27
2022-11-29T08:40:41.085Z,19.00
2022-11-29T08:41:15.463Z,18.52
2022-11-29T08:41:48.984Z,16.70
2022-11-29T08:42:20.605Z,18.10
2022-11-29T08:42:52.178Z,17.92
2022-11-29T08:43:23.626Z,18.20
2022-11-29T08:43:55.209Z,19.20
2022-11-29T08:44:26.731Z,18.35
2022-11-29T08:44:58.188Z,18.73
2022-11-29T08:45:29.788Z,19.05
2022-11-29T08:46:01.857Z,19.95
2022-11-29T08:46:52.017Z,18.15
2022-11-29T08:47:35.833Z,14.90
2022-11-29T08:48:07.295Z,17.75